Warm Springs Summit, Nevada Weather observations

Data are for observation ending at time listed.
 Day   Time    Ave.   Ave.  Ave.  Vector   Max.   Stn.    Total    Solar   Ave.  
  of    of     Air    Rel.  Wind   Wind    Wind   Baro.  Precip.   Rad.    Soil  
Year   Day     Temp.  Hum.  Speed  Dir.    Gust   Pres.                    Temp. 
2014   (PST)    F      %     mph   deg.    mph     mb.     in.     W/m2     F   
------------------------------------------------------------------------------
 329    9:40   37.7    27   14.9   274     18.3   781.9    0.00     451    39.3
 329    9:50   38.1    27   14.1   271     18.7   782.0    0.00     469    39.4
 329   10:00   38.5    27   16.2   274     20.1   781.9    0.00     485    39.5
 329   10:10   39.2    27   17.1   275     21.2   781.8    0.00     500    39.6
 329   10:20   39.7    27   18.7   282     21.2   781.7    0.00     513    39.7
 329   10:30   40.5    28   18.7   283     22.5   781.6    0.00     525    39.9
 329   10:40   40.8    28   19.3   283     21.9   781.5    0.00     535    40.0
 329   10:50   41.7    27   17.1   285     19.9   781.7    0.00     543    40.2
 329   11:00   42.4    27   17.0   286     19.6   781.6    0.00     549    40.3
 329   11:10   43.3    26   17.2   286     20.1   781.6    0.00     554    40.5
 329   11:20   44.7    26   16.5   286     19.4   781.6    0.00     558    40.7
 329   11:30   45.6    26   14.7   283     18.0   781.6    0.00     560    40.9
 329   11:40   46.0    26   13.8   270     18.2   781.5    0.00     559    41.1
 329   11:50   46.3    26   12.3   283     18.6   781.6    0.00     558    41.3
 329   12:00   47.6    28   14.4   282     20.4   781.5    0.00     555    41.5
 329   12:10   47.7    29   15.1   283     19.5   781.4    0.00     549    41.7
 329   12:20   47.8    28   15.2   280     19.8   781.4    0.00     542    41.9
 329   12:30   48.2    28   14.5   280     17.8   781.3    0.00     534    42.1
 329   12:40   48.5    28   14.7   276     19.0   781.2    0.00     524    42.4
 329   12:50   49.1    27   14.7   283     18.3   781.2    0.00     512    42.6
 329   13:00   49.5    27   14.3   287     17.4   781.2    0.00     499    42.9
 329   13:10   49.3    27   15.7   285     19.5   781.0    0.00     484    43.1
 329   13:20   50.0    26   15.7   287     19.9   781.0    0.00     468    43.3
 329   13:30   50.4    26   15.9   287     19.9   780.9    0.00     450    43.6
 329   13:40   51.1    25   15.2   287     18.6   780.9    0.00     431    43.8
 329   13:50   51.1    25   15.4   283     19.3   781.0    0.00     410    44.1
 329   14:00   51.1    26   14.8   281     19.6   781.0    0.00     388    44.3
 329   14:10   51.0    26   16.9   277     22.3   781.0    0.00     365    44.5
 329   14:20   51.0    25   15.4   283     19.6   781.0    0.00     342    44.7
 329   14:30   51.4    24   15.0   280     18.8   781.1    0.00     317    44.9
 329   14:40   51.2    25   14.9   280     19.6   781.2    0.00     291    45.1
 329   14:50   51.3    25   14.8   284     18.9   781.2    0.00     264    45.3
 329   15:00   51.6    24   15.8   290     21.0   781.2    0.00     237    45.5
 329   15:10   51.4    24   17.4   293     21.0   781.2    0.00     209    45.7
 329   15:20   51.6    24   17.0   299     21.8   781.2    0.00     182    45.8
 329   15:30   51.3    25   18.7   301     22.7   781.1    0.00     156    46.0
 329   15:40   51.1    25   17.4   304     22.5   781.1    0.00     125    46.1
 329   15:50   51.0    26   17.2   305     22.1   781.1    0.00      89    46.2
 329   16:00   50.5    26   18.3   304     22.6   781.1    0.00      56    46.3
 329   16:10   50.0    27   17.5   306     21.8   781.1    0.00      30    46.5
 329   16:20   49.3    27   17.4   309     21.8   781.1    0.00      12    46.5
 329   16:30   48.7    28   15.4   309     21.3   781.1    0.00       5    46.6
 329   16:40   48.3    28   12.9   313     16.8   781.1    0.00       1    46.7
 329   16:50   48.5    27   13.2   314     16.5   781.1    0.00       0    46.7
 329   17:00   48.8    26   10.8   319     14.9   781.2    0.00       0    46.8
 329   17:10   48.9    26    9.9   319     13.9   781.3    0.00       0    46.8
 329   17:20   48.5    26    7.9   332     11.4   781.4    0.00       0    46.8
 329   17:30   48.4    26    7.5   331     11.2   781.4    0.00       0    46.8
 329   17:40   48.1    26    8.0   323     10.9   781.3    0.00       0    46.8
 329   17:50   48.8    26    9.7   320     16.1   781.4    0.00       0    46.8
 329   18:00   48.3    26    7.1   345     12.5   781.5    0.00       0    46.8
 329   18:10   47.9    26    4.7   341      9.3   781.6    0.00       0    46.8
 329   18:20   48.1    26    6.1   326     10.6   781.6    0.00       0    46.8
 329   18:30   48.8    25    9.7   319     15.0   781.5    0.00       0    46.7
 329   18:40   48.1    26   10.2   309     15.9   781.5    0.00       0    46.7
 329   18:50   46.3    29    5.5   305     13.1   781.7    0.00       0    46.7
 329   19:00   46.0    29    3.5   129      7.3   781.8    0.00       0    46.6
 329   19:10   46.3    30    5.3   158      8.4   781.8    0.00       0    46.6
 329   19:20   46.3    29    2.0   223      3.3   781.9    0.00       0    46.5
 329   19:30   46.8    28    1.4   271      3.5   782.0    0.00       0    46.5
 329   19:40   47.2    26    3.0   346      5.6   782.0    0.00       0    46.4
 329   19:50   46.9    26    8.3   341     11.5   782.0    0.00       0    46.3
 329   20:00   47.5    26    9.5   343     13.3   781.9    0.00       0    46.3
 329   20:10   47.8    25   10.0   341     13.6   782.0    0.00       0    46.2
 329   20:20   47.9    25    8.8   343     11.9   782.0    0.00       0    46.2
 329   20:30   47.8    25    9.4   340     13.6   782.0    0.00       0    46.1
 329   20:40   47.6    25    9.3   339     13.2   782.0    0.00       0    46.0
 329   20:50   47.7    25    7.7   347     12.8   782.1    0.00       0    46.0
 329   21:00   47.4    26    5.7   346      9.8   782.2    0.00       0    45.9
 329   21:10   46.9    26    5.5   342     10.3   782.3    0.00       0    45.8
 329   21:20   46.2    27    3.9     7      8.9   782.3    0.00       0    45.8
 329   21:30   46.0    27    4.0   349      6.2   782.4    0.00       0    45.7
 329   21:40   46.3    26    3.1    57      5.3   782.4    0.00       0    45.6
 329   21:50   46.2    27    2.4    16      3.4   782.4    0.00       0    45.6
 329   22:00   46.5    27    2.9    13      6.3   782.4    0.00       0    45.5
 329   22:10   47.2    26    2.7    33      6.4   782.4    0.00       0    45.5
 329   22:20   48.0    25    2.6    53      5.5   782.4    0.00       0    45.4
 329   22:30   47.7    26    2.1   349      5.5   782.4    0.00       0    45.3
 329   22:40   47.5    26    2.7   346      3.8   782.4    0.00       0    45.3
 329   22:50   47.3    26    3.5   340      5.4   782.4    0.00       0    45.2
 329   23:00   47.2    26    3.1   345      5.1   782.3    0.00       0    45.1
 329   23:10   47.2    26    4.4   321      6.8   782.3    0.00       0    45.1
 329   23:20   46.6    27    3.4   319      5.2   782.2    0.00       0    45.0
 329   23:30   46.9    26    4.2   312      5.7   782.2    0.00       0    44.9
 329   23:40   46.5    27    4.8   310      6.3   782.2    0.00       0    44.9
 329   23:50   46.4    27    3.9   325      5.8   782.2    0.00       0    44.8
 330    0:00   45.8    28    6.3   292      7.1   782.2    0.00       0    44.7
 330    0:10   44.9    29    7.3   282      8.2   782.2    0.00       0    44.6
 330    0:20   45.2    29    6.7   279      8.8   782.1    0.00       0    44.6
 330    0:30   45.9    28    6.7   275      8.4   782.1    0.00       0    44.5
 330    0:40   45.5    29    8.6   285     11.7   782.0    0.00       0    44.4
 330    0:50   44.5    30   10.8   292     13.6   782.0    0.00       0    44.3
 330    1:00   44.1    30   13.0   293     15.3   781.8    0.00       0    44.3
 330    1:10   43.3    31   13.5   293     16.0   781.8    0.00       0    44.2
 330    1:20   43.0    32   13.8   291     15.2   781.8    0.00       0    44.1
 330    1:30   42.5    32   14.9   295     17.3   781.8    0.00       0    44.1
 330    1:40   43.2    31   14.4   297     16.0   781.8    0.00       0    44.0
 330    1:50   43.2    31   12.1   291     14.6   781.9    0.00       0    43.9
 330    2:00   43.5    30   11.3   289     12.7   781.9    0.00       0    43.9
 330    2:10   43.4    31   12.5   289     13.6   781.9    0.00       0    43.8
 330    2:20   43.3    30   13.0   288     15.3   781.8    0.00       0    43.8
 330    2:30   43.9    29   13.7   291     15.8   781.8    0.00       0    43.7
 330    2:40   44.2    28   13.9   290     16.0   781.7    0.00       0    43.7
 330    2:50   44.7    27   13.4   292     15.9   781.6    0.00       0    43.6
 330    3:00   44.8    27   14.2   295     16.3   781.5    0.00       0    43.6
 330    3:10   44.9    26   15.6   295     18.1   781.5    0.00       0    43.5
 330    3:20   44.7    27   14.7   293     16.2   781.5    0.00       0    43.5
 330    3:30   44.8    26   14.0   289     16.3   781.5    0.00       0    43.5
 330    3:40   45.1    26   13.2   280     15.7   781.6    0.00       0    43.4
 330    3:50   45.4    26   11.0   278     13.9   781.7    0.00       0    43.4
 330    4:00   45.3    26   11.5   285     13.5   781.7    0.00       0    43.4
 330    4:10   45.4    25   11.7   289     13.6   781.7    0.00       0    43.3
 330    4:20   45.5    25   11.6   292     13.3   781.6    0.00       0    43.3
 330    4:30   45.6    24   12.2   293     14.2   781.6    0.00       0    43.3
 330    4:40   45.7    24   12.9   291     14.9   781.7    0.00       0    43.2
 330    4:50   45.6    24   12.8   291     15.5   781.7    0.00       0    43.2
 330    5:00   45.6    24   11.9   290     13.7   781.7    0.00       0    43.2
 330    5:10   45.6    24   11.8   291     13.6   781.7    0.00       0    43.2
 330    5:20   45.3    25   11.8   291     14.6   781.8    0.00       0    43.1
 330    5:30   45.7    24   12.4   293     16.4   781.7    0.00       0    43.1
 330    5:40   45.2    25   11.3   292     12.9   781.8    0.00       0    43.1
 330    5:50   44.3    26   11.0   284     12.1   781.9    0.00       0    43.1
 330    6:00   43.3    28   10.4   285     11.5   782.0    0.00       0    43.1
 330    6:10   43.9    27   10.0   287     12.1   782.0    0.00       0    43.0
 330    6:20   44.2    26    9.6   290     11.2   782.1    0.00       1    43.0
 330    6:30   44.4    26    9.9   292     12.2   782.1    0.00       2    43.0
 330    6:40   44.9    26   10.6   294     12.8   782.1    0.00       5    43.0
 330    6:50   46.0    25   11.8   292     13.8   782.1    0.00      11    42.9
 330    7:00   46.5    24   11.4   295     13.5   782.2    0.00      29    42.9
 330    7:10   46.2    24   10.1   298     11.3   782.2    0.00      53    42.9
 330    7:20   46.2    24   10.9   294     12.8   782.3    0.00      85    42.9
 330    7:30   46.4    24    9.1   302     10.3   782.4    0.00     121    42.8
 330    7:40   47.4    24    7.9   300      9.0   782.5    0.00     154    42.8
 330    7:50   48.0    24    7.7   295      9.2   782.6    0.00     181    42.8
 330    8:00   48.2    24    8.9   294     10.7   782.6    0.00     208    42.8
 330    8:10   48.0    24    9.5   296     11.4   782.7    0.00     236    42.8
 330    8:20   48.1    24    9.8   293     11.8   782.7    0.00     263    42.8
 330    8:30   48.7    24    9.2   292     11.5   782.8    0.00     290    42.8
 330    8:40   48.8    24    9.4   286     12.3   782.8    0.00     316    42.8
 330    8:50   48.5    24    9.3   284     12.0   782.8    0.00     342    42.8
 330    9:00   49.2    24    9.7   282     12.0   782.9    0.00     367    42.9
 330    9:10   49.5    24   10.8   283     13.1   782.9    0.00     391    42.9
 330    9:20   49.4    24   10.8   283     13.3   783.0    0.00     413    43.0
 330    9:30   49.2    24   11.6   282     14.2   783.0    0.00     434    43.1

Return to Warm Springs Summit, Nevada graphs page.


Western Regional Climate Center,wrcc@dri.edu